createdAt,value
2023-11-18T00:02:59.902Z,101722.28
2023-11-18T00:08:42.678Z,101712.63
2023-11-18T00:11:12.275Z,101705.56
2023-11-18T00:13:40.803Z,101714.34
2023-11-18T00:16:13.283Z,101722.22
2023-11-18T00:18:42.027Z,101721.38
2023-11-18T00:21:10.490Z,101724.88
2023-11-18T00:23:49.496Z,101712.59
2023-11-18T00:26:19.928Z,101718.75
2023-11-18T00:28:51.544Z,101717.91
2023-11-18T00:31:19.876Z,101697.78
2023-11-18T00:33:48.264Z,101712.78
2023-11-18T00:36:16.773Z,101715.41
2023-11-18T00:38:45.694Z,101707.53
2023-11-18T00:41:14.393Z,101704.97
2023-11-18T00:43:44.126Z,101697.06
2023-11-18T00:46:12.659Z,101711.13
2023-11-18T00:48:43.679Z,101719.94
2023-11-18T00:51:12.258Z,101727.88
2023-11-18T00:53:40.519Z,101722.63
2023-11-18T00:56:11.112Z,101734.06
2023-11-18T00:58:41.664Z,101709.50
2023-11-18T01:01:11.695Z,101733.13
2023-11-18T01:03:40.879Z,101743.63
2023-11-18T01:06:09.503Z,101731.31
2023-11-18T01:08:37.941Z,101738.34
2023-11-18T01:11:07.058Z,101758.59
2023-11-18T01:13:35.415Z,101754.22
2023-11-18T01:18:20.752Z,101751.63
2023-11-18T01:20:49.415Z,101753.38
2023-11-18T01:24:34.530Z,101783.25
2023-11-18T01:30:00.719Z,101676.16
2023-11-18T01:33:07.195Z,101785.84
2023-11-18T01:38:53.212Z,101774.34
2023-11-18T01:42:51.066Z,101781.31
2023-11-18T01:45:39.116Z,101788.25
2023-11-18T01:48:57.054Z,101775.00
2023-11-18T01:54:26.371Z,101774.94
2023-11-18T01:57:50.202Z,101787.19
2023-11-18T02:00:55.771Z,101788.09
2023-11-18T02:04:10.950Z,101774.06
2023-11-18T02:14:47.205Z,101797.63
2023-11-18T02:18:00.033Z,101789.69
2023-11-18T02:21:06.483Z,101789.63
2023-11-18T02:26:59.341Z,101787.59
2023-11-18T02:30:04.592Z,101780.63
2023-11-18T02:33:19.420Z,101794.59
2023-11-18T02:36:37.433Z,101789.38
2023-11-18T02:43:32.508Z,101799.94
2023-11-18T02:46:46.727Z,101802.59
2023-11-18T02:49:15.146Z,101805.19
2023-11-18T02:55:29.599Z,101777.22
2023-11-18T02:58:34.399Z,101787.81
2023-11-18T03:04:16.172Z,101788.75
2023-11-18T03:07:22.690Z,101787.78
2023-11-18T03:10:38.663Z,101746.50
2023-11-18T03:16:14.084Z,101752.69
2023-11-18T03:19:33.159Z,101777.25
2023-11-18T03:22:42.073Z,101758.81
2023-11-18T03:26:00.637Z,101786.06
2023-11-18T03:31:30.278Z,101793.09
2023-11-18T03:34:49.155Z,101796.59
2023-11-18T03:56:03.763Z,101782.44
2023-11-18T04:01:30.134Z,101793.84
2023-11-18T04:04:49.258Z,101787.63
2023-11-18T04:07:17.516Z,101787.78
2023-11-18T04:09:45.728Z,101768.50
2023-11-18T04:12:13.985Z,101775.53
2023-11-18T04:14:42.322Z,101786.03
2023-11-18T04:17:10.935Z,101776.25
2023-11-18T04:19:40.205Z,101779.94
2023-11-18T04:22:10.816Z,101766.69
2023-11-18T04:24:39.698Z,101773.72
2023-11-18T04:27:08.592Z,101778.97
2023-11-18T04:29:38.600Z,101773.63
2023-11-18T04:32:07.465Z,101781.56
2023-11-18T04:34:37.806Z,101778.91
2023-11-18T04:37:07.087Z,101762.22
2023-11-18T04:39:38.185Z,101766.56
2023-11-18T04:42:06.799Z,101778.13
2023-11-18T04:44:35.661Z,101771.88
2023-11-18T04:47:04.733Z,101761.34
2023-11-18T04:49:33.009Z,101759.50
2023-11-18T04:52:01.389Z,101761.34
2023-11-18T04:54:29.794Z,101750.78
2023-11-18T04:56:59.571Z,101764.69
2023-11-18T04:59:27.875Z,101737.50
2023-11-18T05:01:56.252Z,101756.94
2023-11-18T05:04:24.565Z,101752.47
2023-11-18T05:06:53.181Z,101756.13
2023-11-18T05:51:41.674Z,101706.78
2023-11-18T05:55:06.991Z,101721.72
2023-11-18T05:58:48.281Z,101678.72
2023-11-18T06:02:06.369Z,101717.31
2023-11-18T06:04:34.690Z,101714.00
2023-11-18T06:07:03.763Z,101720.13
2023-11-18T06:09:32.170Z,101714.78
2023-11-18T06:12:01.912Z,101724.56
2023-11-18T06:14:30.191Z,101720.19
2023-11-18T06:17:00.722Z,101722.88
2023-11-18T06:19:30.560Z,101716.75
2023-11-18T06:21:58.759Z,101728.19
2023-11-18T06:24:27.448Z,101705.38
2023-11-18T06:26:56.021Z,101713.31
2023-11-18T06:29:24.941Z,101729.22
2023-11-18T06:31:53.391Z,101735.34
2023-11-18T06:34:22.013Z,101723.06
2023-11-18T06:36:51.964Z,101737.97
2023-11-18T06:39:20.897Z,101745.06
2023-11-18T06:41:52.637Z,101735.38
2023-11-18T06:44:24.992Z,101744.19
2023-11-18T06:46:53.405Z,101755.69
2023-11-18T06:49:21.730Z,101756.53
2023-11-18T06:51:52.122Z,101746.88
2023-11-18T06:54:22.315Z,101754.81
2023-11-18T06:56:54.051Z,101739.91
2023-11-18T06:59:22.414Z,101747.81
2023-11-18T07:04:37.072Z,101760.09
2023-11-18T07:07:05.574Z,101765.38
2023-11-18T07:09:37.180Z,101760.09
2023-11-18T07:12:06.167Z,101764.47
2023-11-18T07:14:34.650Z,101765.38
2023-11-18T07:17:03.032Z,101746.03
2023-11-18T07:19:32.301Z,101758.25
2023-11-18T07:22:01.952Z,101761.69
2023-11-18T07:24:31.164Z,101762.47
2023-11-18T07:27:00.885Z,101765.97
2023-11-18T07:34:53.409Z,101750.09
2023-11-18T07:41:22.263Z,101672.84
2023-11-18T07:51:01.513Z,101767.41
2023-11-18T07:56:43.555Z,101757.44
2023-11-18T08:00:19.397Z,101769.09
2023-11-18T08:05:42.737Z,101767.00
2023-11-18T08:09:05.300Z,101766.88
2023-11-18T08:14:37.568Z,101765.94
2023-11-18T08:17:06.783Z,101748.25
2023-11-18T08:19:36.624Z,101753.25
2023-11-18T08:22:05.240Z,101751.38
2023-11-18T08:24:34.525Z,101743.81
2023-11-18T08:27:04.545Z,101714.09
2023-11-18T08:29:36.869Z,101729.34
2023-11-18T08:32:06.900Z,101727.81
2023-11-18T08:34:50.821Z,101727.78
2023-11-18T08:37:36.011Z,101702.84
2023-11-18T08:40:24.369Z,101705.75
2023-11-18T08:43:16.539Z,101717.78
2023-11-18T08:46:14.213Z,101690.44
2023-11-18T08:49:13.994Z,101720.03
2023-11-18T08:51:50.411Z,101728.50
2023-11-18T08:54:26.604Z,101686.59
2023-11-18T08:57:27.477Z,101732.75
2023-11-18T09:00:00.051Z,101746.88
2023-11-18T09:02:36.643Z,101746.44
2023-11-18T09:05:14.023Z,101747.91
2023-11-18T09:07:44.491Z,101741.09
2023-11-18T09:10:13.403Z,101738.91
2023-11-18T09:12:46.380Z,101733.56
2023-11-18T09:15:23.862Z,101735.06
2023-11-18T09:17:54.660Z,101729.88
2023-11-18T09:20:23.496Z,101726.97
2023-11-18T09:22:56.960Z,101710.47
2023-11-18T09:25:25.418Z,101718.38
2023-11-18T09:27:54.060Z,101714.22
2023-11-18T09:30:22.359Z,101720.53
2023-11-18T09:32:55.862Z,101720.22
2023-11-18T09:35:24.471Z,101708.97
2023-11-18T09:37:54.143Z,101707.75
2023-11-18T09:40:28.079Z,101704.25
2023-11-18T09:42:59.433Z,101710.38
2023-11-18T09:47:46.080Z,101715.38
2023-11-18T09:51:34.881Z,101708.56
2023-11-18T09:54:07.391Z,101709.50
2023-11-18T09:56:47.172Z,101718.56
2023-11-18T09:59:21.066Z,101718.03
2023-11-18T10:01:54.894Z,101719.50
2023-11-18T10:04:28.762Z,101682.38
2023-11-18T10:06:59.308Z,101660.19
2023-11-18T10:09:31.187Z,101645.28
2023-11-18T10:12:06.598Z,101639.63
2023-11-18T10:14:36.311Z,101623.94
2023-11-18T10:17:09.054Z,101629.88
2023-11-18T10:19:57.137Z,101633.88
2023-11-18T10:22:29.288Z,101629.75
2023-11-18T10:24:59.268Z,101627.69
2023-11-18T10:27:28.846Z,101637.53
2023-11-18T10:30:53.821Z,101623.31
2023-11-18T10:33:23.158Z,101621.69
2023-11-18T10:35:56.926Z,101630.03
2023-11-18T10:38:27.468Z,101625.97
2023-11-18T10:40:57.370Z,101621.16
2023-11-18T10:43:26.681Z,101615.97
2023-11-18T10:46:12.795Z,101623.09
2023-11-18T10:48:48.694Z,101618.69
2023-11-18T10:51:20.641Z,101607.22
2023-11-18T10:53:59.810Z,101612.47
2023-11-18T10:56:29.946Z,101598.38
2023-11-18T10:58:59.708Z,101594.00
2023-11-18T11:01:33.829Z,101578.22
2023-11-18T11:04:05.932Z,101576.78
2023-11-18T11:06:35.959Z,101575.25
2023-11-18T11:09:11.126Z,101572.69
2023-11-18T11:11:42.672Z,101563.25
2023-11-18T11:14:14.272Z,101565.91
2023-11-18T11:16:47.122Z,101558.91
2023-11-18T11:19:23.903Z,101541.47
2023-11-18T11:21:57.868Z,101545.13
2023-11-18T11:24:38.460Z,101546.78
2023-11-18T11:27:24.502Z,101538.13
2023-11-18T11:29:59.529Z,101547.63
2023-11-18T11:32:32.871Z,101548.25
2023-11-18T11:35:08.950Z,101538.97
2023-11-18T11:37:40.780Z,101540.28
2023-11-18T11:40:11.825Z,101530.38
2023-11-18T11:42:42.546Z,101541.13
2023-11-18T11:45:21.624Z,101543.91
2023-11-18T11:47:53.279Z,101538.94
2023-11-18T11:50:33.073Z,101541.41
2023-11-18T11:53:09.590Z,101537.72
2023-11-18T11:55:46.017Z,101544.00
2023-11-18T11:58:28.354Z,101508.56
2023-11-18T12:00:56.898Z,101496.72
2023-11-18T12:03:26.797Z,101492.47
2023-11-18T12:06:11.579Z,101504.41
2023-11-18T12:08:45.495Z,101486.31
2023-11-18T12:11:17.074Z,101468.44
2023-11-18T12:14:11.145Z,101457.19
2023-11-18T12:17:02.405Z,101508.41
2023-11-18T12:19:46.201Z,101497.44
2023-11-18T12:22:19.066Z,101496.19
2023-11-18T12:24:57.382Z,101488.09
2023-11-18T12:27:52.796Z,101486.56
2023-11-18T12:30:44.911Z,101486.63
2023-11-18T12:33:20.245Z,101488.16
2023-11-18T12:36:27.095Z,101487.81
2023-11-18T12:39:33.254Z,101472.63
2023-11-18T12:42:12.894Z,101483.03
2023-11-18T12:44:53.275Z,101492.59
2023-11-18T12:47:29.797Z,101485.56
2023-11-18T12:50:01.378Z,101464.13
2023-11-18T12:52:29.971Z,101452.78
2023-11-18T12:55:00.486Z,101466.28
2023-11-18T12:57:32.865Z,101463.72
2023-11-18T13:00:05.591Z,101462.03
2023-11-18T13:02:34.212Z,101452.03
2023-11-18T13:05:10.204Z,101467.31
2023-11-18T13:07:40.267Z,101465.84
2023-11-18T13:10:10.809Z,101457.50
2023-11-18T13:12:39.290Z,101442.28
2023-11-18T13:15:09.697Z,101441.31
2023-11-18T13:17:38.910Z,101451.31
2023-11-18T13:20:17.375Z,101459.25
2023-11-18T13:22:48.375Z,101444.44
2023-11-18T13:25:19.489Z,101451.50
2023-11-18T13:27:48.764Z,101447.06
2023-11-18T13:30:47.615Z,101438.94
2023-11-18T13:33:16.158Z,101437.56
2023-11-18T13:35:45.689Z,101442.88
2023-11-18T13:38:15.313Z,101430.13
2023-11-18T13:40:48.003Z,101436.44
2023-11-18T13:43:16.513Z,101428.19
2023-11-18T13:45:44.872Z,101419.06
2023-11-18T13:48:15.239Z,101392.41
2023-11-18T13:50:44.722Z,101404.13
2023-11-18T13:53:13.669Z,101406.28
2023-11-18T13:55:43.010Z,101403.97
2023-11-18T13:58:12.749Z,101395.03
2023-11-18T14:00:43.223Z,101385.75
2023-11-18T14:03:13.224Z,101385.16
2023-11-18T14:05:46.034Z,101365.41
2023-11-18T14:08:21.128Z,101359.97
2023-11-18T14:11:02.012Z,101360.16
2023-11-18T14:13:32.390Z,101358.09
2023-11-18T14:16:01.039Z,101333.44
2023-11-18T14:18:29.612Z,101324.03
2023-11-18T14:21:02.078Z,101332.19
2023-11-18T14:23:30.437Z,101309.38
2023-11-18T14:25:59.265Z,101330.28
2023-11-18T14:28:47.829Z,101316.66
2023-11-18T14:31:16.427Z,101337.25
2023-11-18T14:33:44.905Z,101332.34
2023-11-18T14:36:13.438Z,101318.13
2023-11-18T14:38:41.754Z,101322.47
